Time;durP1;ratioP1;P1;durP2;ratioP2;P2;SDS_P1;SDS_P2;PMS_P1;PMS_P2;Temp;Humidity;BMP_temperature;BMP_pressure;BME280_temperature;BME280_humidity;BME280_pressure;Samples;Min_cycle;Max_cycle;Signal;HPM_P1;HPM_P2
2022/12/08 00:00:53;;;;;;;8.55;4.70;;;;;;;;;;1791529;80;20995;-72
2022/12/08 00:03:19;;;;;;;8.18;4.92;;;;;;;;;;1772974;80;21023;-71
2022/12/08 00:11:17;;;;;;;8.30;4.70;;;;;;;;;;1767742;81;21035;-70
2022/12/08 00:13:43;;;;;;;9.08;4.87;;;;;;;;;;1798681;80;21605;-70
2022/12/08 00:16:10;;;;;;;8.83;4.28;;;;;;;;;;1797025;80;20988;-70
2022/12/08 00:18:37;;;;;;;8.85;4.53;;;;;;;;;;1800492;80;21573;-70
2022/12/08 00:21:03;;;;;;;8.83;4.72;;;;;;;;;;1774046;80;21013;-71
2022/12/08 00:23:30;;;;;;;6.95;4.60;;;;;;;;;;1764153;80;21011;-70
2022/12/08 00:25:56;;;;;;;7.42;4.40;;;;;;;;;;1770677;80;21032;-70
2022/12/08 00:28:22;;;;;;;10.10;5.33;;;;;;;;;;1782921;80;21075;-70
2022/12/08 00:30:48;;;;;;;8.78;5.15;;;;;;;;;;1783192;80;21495;-70
2022/12/08 00:33:16;;;;;;;11.33;5.50;;;;;;;;;;1762673;81;20996;-71
2022/12/08 00:35:42;;;;;;;9.35;4.97;;;;;;;;;;1800086;80;21096;-72
2022/12/08 00:38:08;;;;;;;9.58;4.95;;;;;;;;;;1799016;80;21386;-72
2022/12/08 00:40:34;;;;;;;9.13;4.62;;;;;;;;;;1798352;80;20983;-72
2022/12/08 00:43:00;;;;;;;9.98;5.80;;;;;;;;;;1774290;80;21060;-72
2022/12/08 00:45:26;;;;;;;8.65;4.62;;;;;;;;;;1714625;84;21111;-72
2022/12/08 00:47:53;;;;;;;8.68;4.45;;;;;;;;;;1762906;81;21057;-71
2022/12/08 00:50:20;;;;;;;8.28;5.17;;;;;;;;;;1740124;81;21226;-71
2022/12/08 00:52:46;;;;;;;8.13;5.28;;;;;;;;;;1758403;81;21069;-71
2022/12/08 00:55:12;;;;;;;10.28;5.25;;;;;;;;;;1774850;80;21063;-71
2022/12/08 00:57:38;;;;;;;9.00;5.17;;;;;;;;;;1767606;81;21059;-71
2022/12/08 01:00:05;;;;;;;10.88;5.22;;;;;;;;;;1779497;80;21508;-71
2022/12/08 01:02:33;;;;;;;10.00;5.67;;;;;;;;;;1798321;80;21527;-70
2022/12/08 01:04:59;;;;;;;10.43;5.10;;;;;;;;;;1793271;80;21008;-70
2022/12/08 01:07:25;;;;;;;11.70;6.20;;;;;;;;;;1788132;80;21020;-70
2022/12/08 01:09:52;;;;;;;12.03;5.65;;;;;;;;;;1792543;80;21035;-71
2022/12/08 01:12:18;;;;;;;9.53;5.50;;;;;;;;;;1795715;80;21091;-71
2022/12/08 01:14:45;;;;;;;10.40;6.20;;;;;;;;;;1745189;82;21492;-70
2022/12/08 01:17:12;;;;;;;10.20;5.50;;;;;;;;;;1800705;79;21073;-70
2022/12/08 01:19:38;;;;;;;8.60;5.78;;;;;;;;;;1792543;80;21079;-70
2022/12/08 01:22:04;;;;;;;9.88;5.58;;;;;;;;;;1783465;80;21068;-71
2022/12/08 01:24:31;;;;;;;8.55;5.47;;;;;;;;;;1763675;81;21028;-71
2022/12/08 01:26:57;;;;;;;9.28;5.33;;;;;;;;;;1761682;81;21054;-71
2022/12/08 01:29:23;;;;;;;11.93;5.80;;;;;;;;;;1762141;81;20985;-70
2022/12/08 01:31:49;;;;;;;11.15;5.70;;;;;;;;;;1797749;80;21045;-71
2022/12/08 01:34:16;;;;;;;10.78;5.85;;;;;;;;;;1745178;82;21039;-71
2022/12/08 01:36:43;;;;;;;10.23;5.40;;;;;;;;;;1793858;80;21132;-71
2022/12/08 01:39:11;;;;;;;9.68;6.40;;;;;;;;;;1788702;80;21023;-71
2022/12/08 01:41:37;;;;;;;10.60;6.67;;;;;;;;;;1795308;80;21737;-71
2022/12/08 01:44:09;;;;;;;12.68;6.37;;;;;;;;;;1795387;80;21542;-71
2022/12/08 01:46:36;;;;;;;11.57;6.53;;;;;;;;;;1792794;80;21054;-71
2022/12/08 01:49:05;;;;;;;9.80;6.33;;;;;;;;;;1791053;80;21047;-71
2022/12/08 01:51:32;;;;;;;11.25;6.60;;;;;;;;;;1798640;80;21011;-70
2022/12/08 01:53:58;;;;;;;11.85;6.62;;;;;;;;;;1798572;80;21054;-71
2022/12/08 01:56:26;;;;;;;11.25;5.65;;;;;;;;;;1798688;80;21050;-70
2022/12/08 01:58:53;;;;;;;10.53;5.70;;;;;;;;;;1793625;80;21079;-71
2022/12/08 02:04:09;;;;;;;9.85;5.28;;;;;;;;;;1722970;81;79356;-66
2022/12/08 02:06:36;;;;;;;8.40;5.80;;;;;;;;;;1745353;81;21051;-66
2022/12/08 02:09:03;;;;;;;8.40;5.67;;;;;;;;;;1774013;81;20987;-66
2022/12/08 02:11:29;;;;;;;10.93;6.00;;;;;;;;;;1688729;83;21030;-66
2022/12/08 02:13:56;;;;;;;10.98;6.72;;;;;;;;;;1684506;84;21020;-66
2022/12/08 02:16:27;;;;;;;10.65;6.20;;;;;;;;;;1698086;84;21035;-66
2022/12/08 02:19:08;;;;;;;11.20;6.03;;;;;;;;;;1750508;82;21110;-67
2022/12/08 02:21:36;;;;;;;10.72;6.50;;;;;;;;;;1750399;82;21052;-67
2022/12/08 02:24:07;;;;;;;10.98;6.53;;;;;;;;;;1747477;82;21071;-66
2022/12/08 02:26:51;;;;;;;13.78;7.10;;;;;;;;;;1729944;82;21522;-66
2022/12/08 06:26:17;;;;;;;16.12;10.43;;;;;;;;;;1741480;80;28125;-69
2022/12/08 06:28:43;;;;;;;18.42;11.70;;;;;;;;;;1714487;82;28931;-69
2022/12/08 06:31:11;;;;;;;16.85;9.83;;;;;;;;;;1733698;81;21043;-70
2022/12/08 06:33:37;;;;;;;17.35;8.48;;;;;;;;;;1740653;80;21536;-70
2022/12/08 06:36:04;;;;;;;15.50;8.25;;;;;;;;;;1739500;80;21558;-69
2022/12/08 06:38:31;;;;;;;16.73;9.13;;;;;;;;;;1739011;82;21028;-69
2022/12/08 06:40:57;;;;;;;15.30;8.13;;;;;;;;;;1737538;81;21051;-69
2022/12/08 06:43:23;;;;;;;16.45;8.98;;;;;;;;;;1739579;82;21079;-69
2022/12/08 06:45:49;;;;;;;17.95;8.80;;;;;;;;;;1735744;82;20992;-70
2022/12/08 06:48:16;;;;;;;17.12;9.55;;;;;;;;;;1734730;82;21032;-69
2022/12/08 06:50:42;;;;;;;18.17;8.88;;;;;;;;;;1704587;83;21402;-70
2022/12/08 06:53:10;;;;;;;18.52;9.10;;;;;;;;;;1737045;81;21047;-70
2022/12/08 06:55:36;;;;;;;21.75;10.28;;;;;;;;;;1736979;82;21499;-70
2022/12/08 06:58:03;;;;;;;18.62;9.40;;;;;;;;;;1707665;84;21558;-69
2022/12/08 07:00:29;;;;;;;15.32;8.65;;;;;;;;;;1701266;82;21472;-70
2022/12/08 07:02:55;;;;;;;22.45;10.93;;;;;;;;;;1739596;81;20999;-70
2022/12/08 07:05:21;;;;;;;18.17;9.13;;;;;;;;;;1739067;82;21005;-70
2022/12/08 07:07:47;;;;;;;17.17;9.50;;;;;;;;;;1757881;81;21101;-70
2022/12/08 07:10:13;;;;;;;18.80;10.03;;;;;;;;;;1757515;80;21119;-72
2022/12/08 07:12:39;;;;;;;17.23;9.50;;;;;;;;;;1761261;81;21035;-73
2022/12/08 07:15:07;;;;;;;18.25;9.65;;;;;;;;;;1735777;82;21028;-71
2022/12/08 07:17:33;;;;;;;17.15;9.15;;;;;;;;;;1742818;82;21048;-72
2022/12/08 07:19:59;;;;;;;16.60;8.20;;;;;;;;;;1743713;82;21048;-71
2022/12/08 07:22:25;;;;;;;16.35;9.18;;;;;;;;;;1747365;82;21057;-71
2022/12/08 07:24:51;;;;;;;17.48;8.78;;;;;;;;;;1723584;82;21041;-70
2022/12/08 07:27:18;;;;;;;17.90;8.50;;;;;;;;;;1749090;82;21064;-70
2022/12/08 07:29:44;;;;;;;14.93;8.15;;;;;;;;;;1743293;82;21052;-71
2022/12/08 07:32:11;;;;;;;17.20;9.03;;;;;;;;;;1729803;82;21048;-70
2022/12/08 07:34:37;;;;;;;12.73;8.25;;;;;;;;;;1730372;83;21064;-70
2022/12/08 07:37:03;;;;;;;18.15;8.60;;;;;;;;;;1731196;82;21048;-70
2022/12/08 07:39:30;;;;;;;18.32;9.53;;;;;;;;;;1732082;82;21021;-71
2022/12/08 07:41:56;;;;;;;17.80;8.93;;;;;;;;;;1697934;83;21064;-71
2022/12/08 07:44:22;;;;;;;14.00;8.03;;;;;;;;;;1686478;84;21057;-71
2022/12/08 07:46:48;;;;;;;17.00;8.80;;;;;;;;;;1734768;82;21048;-69
2022/12/08 07:49:15;;;;;;;20.23;9.68;;;;;;;;;;1731618;82;21064;-70
2022/12/08 07:51:41;;;;;;;14.13;7.95;;;;;;;;;;1732944;82;21045;-69
2022/12/08 07:54:09;;;;;;;14.50;7.75;;;;;;;;;;1728132;82;21072;-70
2022/12/08 07:56:35;;;;;;;16.05;8.75;;;;;;;;;;1733921;82;21011;-71
2022/12/08 07:59:03;;;;;;;19.20;8.88;;;;;;;;;;1731807;82;21068;-69
2022/12/08 08:01:30;;;;;;;15.18;8.15;;;;;;;;;;1729830;82;21074;-69
2022/12/08 08:03:56;;;;;;;15.58;8.30;;;;;;;;;;1731141;82;21072;-69
2022/12/08 08:06:22;;;;;;;19.10;10.30;;;;;;;;;;1727526;82;21092;-69
2022/12/08 08:08:49;;;;;;;18.90;9.30;;;;;;;;;;1733108;82;21017;-70
2022/12/08 08:11:15;;;;;;;15.08;8.35;;;;;;;;;;1733903;82;21067;-70
2022/12/08 08:13:42;;;;;;;17.00;9.50;;;;;;;;;;1750228;82;21564;-70
2022/12/08 08:16:08;;;;;;;16.87;8.33;;;;;;;;;;1730142;82;21057;-70
2022/12/08 08:18:35;;;;;;;16.97;8.08;;;;;;;;;;1730200;82;21021;-70
2022/12/08 08:21:01;;;;;;;18.30;9.65;;;;;;;;;;1734975;82;21223;-72
2022/12/08 08:23:27;;;;;;;19.50;10.20;;;;;;;;;;1727887;82;21052;-70
2022/12/08 08:25:54;;;;;;;18.05;8.78;;;;;;;;;;1721900;82;21031;-71
2022/12/08 08:28:20;;;;;;;18.92;10.20;;;;;;;;;;1747772;82;21064;-70
2022/12/08 08:30:46;;;;;;;16.95;8.80;;;;;;;;;;1729470;82;21001;-70
2022/12/08 08:33:13;;;;;;;16.30;8.93;;;;;;;;;;1740063;81;21095;-70
2022/12/08 08:35:39;;;;;;;18.48;9.35;;;;;;;;;;1733259;82;21045;-71
2022/12/08 08:38:06;;;;;;;14.98;8.50;;;;;;;;;;1732905;82;21028;-70
2022/12/08 08:40:32;;;;;;;17.98;8.78;;;;;;;;;;1745424;82;21063;-70
2022/12/08 08:43:02;;;;;;;16.65;8.78;;;;;;;;;;1729122;82;21044;-70
2022/12/08 08:45:28;;;;;;;16.97;8.83;;;;;;;;;;1741856;82;21104;-70
2022/12/08 08:47:55;;;;;;;16.62;8.35;;;;;;;;;;1730991;82;21574;-70
2022/12/08 08:50:21;;;;;;;20.43;9.70;;;;;;;;;;1740455;82;20989;-71
2022/12/08 08:52:47;;;;;;;16.07;8.73;;;;;;;;;;1731766;82;21029;-71
2022/12/08 08:55:14;;;;;;;24.25;11.00;;;;;;;;;;1731409;82;21060;-71
2022/12/08 08:57:40;;;;;;;24.80;13.10;;;;;;;;;;1730713;82;21056;-71
2022/12/08 09:00:08;;;;;;;23.10;10.65;;;;;;;;;;1723746;82;21013;-71
2022/12/08 09:02:38;;;;;;;25.10;13.18;;;;;;;;;;1720371;82;20981;-72
2022/12/08 09:05:04;;;;;;;23.10;10.30;;;;;;;;;;1726881;82;21096;-72
2022/12/08 09:19:41;;;;;;;19.15;11.12;;;;;;;;;;1822176;77;22872;-68
2022/12/08 09:22:07;;;;;;;17.95;9.35;;;;;;;;;;1774025;78;21636;-68
2022/12/08 09:24:33;;;;;;;23.83;10.08;;;;;;;;;;1779521;78;21545;-67
2022/12/08 09:26:59;;;;;;;21.52;10.13;;;;;;;;;;1780238;78;21064;-68
2022/12/08 09:29:26;;;;;;;21.17;9.48;;;;;;;;;;1781927;78;21152;-68
2022/12/08 09:31:53;;;;;;;19.42;9.73;;;;;;;;;;1779096;80;21005;-68
2022/12/08 09:34:19;;;;;;;15.90;8.55;;;;;;;;;;1768899;78;21021;-67
2022/12/08 09:36:45;;;;;;;18.00;8.53;;;;;;;;;;1768145;80;20993;-67
2022/12/08 09:39:11;;;;;;;17.65;8.70;;;;;;;;;;1777401;78;21516;-68
2022/12/08 09:41:55;;;;;;;15.70;8.03;;;;;;;;;;1777442;80;22023;-68
2022/12/08 09:44:37;;;;;;;17.45;8.88;;;;;;;;;;1746421;81;21557;-69
2022/12/08 09:47:04;;;;;;;16.95;8.45;;;;;;;;;;1731085;82;21045;-69
2022/12/08 09:49:32;;;;;;;15.72;8.13;;;;;;;;;;1721349;82;21119;-67
2022/12/08 09:51:58;;;;;;;19.87;9.83;;;;;;;;;;1734085;82;21052;-68
2022/12/08 09:54:27;;;;;;;18.20;9.15;;;;;;;;;;1746493;81;21016;-68
2022/12/08 09:56:54;;;;;;;16.45;8.48;;;;;;;;;;1747586;81;21563;-65
2022/12/08 09:59:21;;;;;;;17.70;8.05;;;;;;;;;;1730956;82;21032;-69
2022/12/08 10:01:47;;;;;;;17.73;8.80;;;;;;;;;;1729800;82;21595;-69
2022/12/08 10:04:15;;;;;;;17.15;8.05;;;;;;;;;;1716877;82;21100;-68
2022/12/08 10:06:52;;;;;;;18.50;8.88;;;;;;;;;;1720314;82;21100;-66
2022/12/08 10:09:29;;;;;;;15.83;7.90;;;;;;;;;;1714982;82;21583;-66
2022/12/08 10:11:57;;;;;;;16.67;8.60;;;;;;;;;;1695250;84;21065;-67
2022/12/08 10:14:25;;;;;;;16.62;8.53;;;;;;;;;;1693574;84;21021;-66
2022/12/08 10:16:52;;;;;;;17.85;8.03;;;;;;;;;;1685832;84;21532;-68
2022/12/08 10:19:22;;;;;;;15.23;7.58;;;;;;;;;;1676439;84;21109;-68
2022/12/08 10:21:49;;;;;;;19.23;8.78;;;;;;;;;;1687492;85;21064;-69
2022/12/08 10:24:23;;;;;;;18.42;8.83;;;;;;;;;;1690650;85;21604;-69
2022/12/08 10:26:49;;;;;;;;;;;;;;;;;;1711209;82;21108;-68
2022/12/08 10:29:15;;;;;;;19.57;9.33;;;;;;;;;;1705854;82;20174;-68
2022/12/08 10:31:41;;;;;;;20.35;9.85;;;;;;;;;;1715605;83;21060;-67
2022/12/08 10:34:17;;;;;;;19.95;9.40;;;;;;;;;;1700343;83;21069;-66
2022/12/08 10:36:45;;;;;;;25.45;10.55;;;;;;;;;;1673415;85;21037;-66
2022/12/08 10:39:31;;;;;;;18.82;8.88;;;;;;;;;;1671852;84;21025;-67
2022/12/08 10:42:01;;;;;;;20.20;8.83;;;;;;;;;;1682721;85;21659;-68
2022/12/08 10:44:28;;;;;;;16.97;7.85;;;;;;;;;;1680738;85;21022;-66
2022/12/08 10:46:54;;;;;;;20.02;8.08;;;;;;;;;;1679366;85;21732;-67
2022/12/08 10:49:28;;;;;;;17.95;8.18;;;;;;;;;;1663404;85;21073;-65
2022/12/08 10:51:55;;;;;;;21.93;8.58;;;;;;;;;;1681881;85;21065;-67
2022/12/08 10:54:32;;;;;;;21.77;8.30;;;;;;;;;;1674728;85;21030;-67
2022/12/08 11:09:22;;;;;;;23.22;10.20;;;;;;;;;;1797898;77;22151;-66
2022/12/08 11:11:49;;;;;;;22.27;9.20;;;;;;;;;;1781147;80;21035;-66
2022/12/08 11:14:17;;;;;;;23.32;10.48;;;;;;;;;;1786422;78;21048;-68
2022/12/08 11:16:43;;;;;;;20.68;10.00;;;;;;;;;;1786539;78;21551;-68
2022/12/08 11:19:11;;;;;;;14.98;7.37;;;;;;;;;;1780885;80;21598;-67
2022/12/08 11:21:37;;;;;;;17.17;8.10;;;;;;;;;;1780453;79;21578;-68
2022/12/08 11:24:08;;;;;;;15.68;7.25;;;;;;;;;;1782105;79;20981;-69
2022/12/08 11:26:34;;;;;;;19.37;7.20;;;;;;;;;;1781292;79;21122;-68
2022/12/08 11:29:00;;;;;;;19.20;8.28;;;;;;;;;;1779565;79;21627;-68
2022/12/08 11:31:28;;;;;;;23.83;9.38;;;;;;;;;;1782081;79;20988;-68
2022/12/08 11:33:55;;;;;;;20.65;9.68;;;;;;;;;;1782946;79;21068;-69
2022/12/08 11:36:21;;;;;;;21.50;9.85;;;;;;;;;;1781612;79;21550;-68
2022/12/08 11:38:49;;;;;;;22.62;9.40;;;;;;;;;;1781910;79;21030;-69
2022/12/08 11:41:16;;;;;;;21.52;9.83;;;;;;;;;;1781646;79;21061;-70
2022/12/08 11:43:47;;;;;;;16.65;8.50;;;;;;;;;;1781814;79;21059;-69
2022/12/08 11:46:18;;;;;;;18.30;8.60;;;;;;;;;;1779621;79;21059;-70
2022/12/08 11:48:49;;;;;;;18.50;8.68;;;;;;;;;;1781945;79;21155;-68
2022/12/08 11:51:21;;;;;;;18.02;9.15;;;;;;;;;;1783534;79;21086;-68
2022/12/08 11:53:52;;;;;;;18.05;9.08;;;;;;;;;;1783789;79;21032;-68
2022/12/08 11:56:22;;;;;;;14.87;7.75;;;;;;;;;;1773683;79;21080;-71
2022/12/08 11:58:51;;;;;;;16.35;7.75;;;;;;;;;;1760562;79;21084;-69
2022/12/08 12:01:22;;;;;;;18.07;9.35;;;;;;;;;;1749368;80;21044;-68
2022/12/08 12:04:06;;;;;;;19.48;9.35;;;;;;;;;;1748808;80;21087;-67
2022/12/08 12:06:43;;;;;;;14.85;7.50;;;;;;;;;;1751871;80;21334;-67
2022/12/08 12:09:24;;;;;;;17.80;7.55;;;;;;;;;;1742904;80;21060;-68
2022/12/08 12:14:48;;;;;;;15.03;7.33;;;;;;;;;;1747501;81;21061;-69
2022/12/08 12:17:32;;;;;;;16.20;7.90;;;;;;;;;;1745050;80;20978;-68
2022/12/08 12:19:59;;;;;;;17.00;7.85;;;;;;;;;;1741787;80;21518;-68
2022/12/08 12:22:25;;;;;;;15.72;7.65;;;;;;;;;;1743189;81;22404;-67
2022/12/08 12:24:52;;;;;;;17.25;7.72;;;;;;;;;;1743578;81;21013;-67
2022/12/08 12:27:22;;;;;;;16.15;8.35;;;;;;;;;;1767035;81;21062;-66
2022/12/08 12:29:53;;;;;;;19.60;9.05;;;;;;;;;;1754245;81;21477;-65
2022/12/08 12:32:19;;;;;;;20.43;9.65;;;;;;;;;;1755541;81;21587;-65
2022/12/08 12:34:47;;;;;;;13.53;7.25;;;;;;;;;;1757100;81;21032;-67
2022/12/08 12:37:14;;;;;;;16.97;7.92;;;;;;;;;;1764091;80;21059;-67
2022/12/08 12:39:45;;;;;;;16.87;7.45;;;;;;;;;;1750935;80;21016;-67
2022/12/08 12:42:13;;;;;;;14.80;7.15;;;;;;;;;;1763436;80;21556;-68
2022/12/08 12:44:39;;;;;;;15.65;7.65;;;;;;;;;;1752367;80;21045;-67
2022/12/08 12:47:07;;;;;;;14.13;6.75;;;;;;;;;;1760548;81;21041;-65
2022/12/08 12:49:39;;;;;;;15.25;8.18;;;;;;;;;;1750665;81;21056;-65
2022/12/08 12:52:10;;;;;;;15.48;8.23;;;;;;;;;;1755940;80;21504;-66
2022/12/08 12:54:36;;;;;;;15.32;7.03;;;;;;;;;;1757068;81;21013;-67
2022/12/08 12:57:15;;;;;;;16.27;8.40;;;;;;;;;;1722335;81;21057;-67
2022/12/08 12:59:43;;;;;;;24.98;10.20;;;;;;;;;;1758166;81;21026;-66
2022/12/08 13:02:20;;;;;;;21.27;9.43;;;;;;;;;;1754410;80;21093;-67
2022/12/08 13:04:53;;;;;;;21.15;9.10;;;;;;;;;;1756667;80;21520;-67
2022/12/08 13:07:22;;;;;;;16.23;8.28;;;;;;;;;;1752261;80;20993;-68
2022/12/08 13:09:51;;;;;;;18.12;8.38;;;;;;;;;;1744765;81;21521;-65
2022/12/08 13:12:19;;;;;;;16.50;8.15;;;;;;;;;;1750367;81;21058;-68
2022/12/08 13:14:46;;;;;;;17.70;8.35;;;;;;;;;;1745858;81;21057;-68
2022/12/08 13:17:14;;;;;;;17.75;7.72;;;;;;;;;;1751436;81;21024;-68
2022/12/08 13:19:40;;;;;;;17.70;8.18;;;;;;;;;;1747865;80;21030;-68
2022/12/08 13:22:25;;;;;;;14.18;7.25;;;;;;;;;;1746191;80;21041;-68
2022/12/08 13:24:52;;;;;;;14.40;7.08;;;;;;;;;;1737097;81;21117;-69
2022/12/08 13:27:28;;;;;;;18.42;8.60;;;;;;;;;;1662389;84;21021;-69
2022/12/08 13:30:12;;;;;;;16.30;8.05;;;;;;;;;;1707769;83;21033;-68
2022/12/08 13:32:56;;;;;;;19.30;9.30;;;;;;;;;;1720782;82;21019;-68
2022/12/08 13:35:22;;;;;;;18.15;9.13;;;;;;;;;;1702207;82;21500;-70
2022/12/08 13:37:48;;;;;;;19.57;9.73;;;;;;;;;;1707551;82;21052;-67
2022/12/08 13:40:19;;;;;;;21.85;10.28;;;;;;;;;;1713826;82;21062;-67
2022/12/08 13:42:49;;;;;;;20.48;10.68;;;;;;;;;;1751703;81;21090;-67
2022/12/08 13:45:18;;;;;;;19.40;9.38;;;;;;;;;;1757912;81;21455;-68
2022/12/08 13:47:46;;;;;;;17.70;8.63;;;;;;;;;;1754000;81;20981;-67
2022/12/08 13:50:14;;;;;;;19.25;9.33;;;;;;;;;;1707296;82;21072;-67
2022/12/08 13:52:45;;;;;;;21.60;10.05;;;;;;;;;;1704393;82;21018;-68
2022/12/08 13:55:19;;;;;;;19.12;9.15;;;;;;;;;;1749255;80;21057;-67
2022/12/08 13:57:47;;;;;;;17.32;8.70;;;;;;;;;;1747259;80;21052;-69
2022/12/08 14:00:16;;;;;;;19.17;9.15;;;;;;;;;;1745025;81;21545;-66
2022/12/08 14:02:44;;;;;;;19.98;9.60;;;;;;;;;;1742356;80;21015;-71
2022/12/08 14:05:10;;;;;;;23.22;9.75;;;;;;;;;;1744427;80;20982;-68
2022/12/08 14:07:36;;;;;;;17.82;8.55;;;;;;;;;;1750756;81;21036;-68
2022/12/08 14:10:03;;;;;;;16.75;8.43;;;;;;;;;;1738451;81;21316;-68
2022/12/08 14:12:30;;;;;;;18.52;8.65;;;;;;;;;;1716032;81;21101;-67
2022/12/08 14:14:57;;;;;;;20.43;8.83;;;;;;;;;;1684074;84;21567;-67
2022/12/08 14:17:23;;;;;;;32.42;15.43;;;;;;;;;;1700388;83;21042;-68
2022/12/08 14:19:56;;;;;;;25.05;11.93;;;;;;;;;;1685075;84;21070;-67
2022/12/08 14:22:23;;;;;;;25.70;10.93;;;;;;;;;;1735890;81;22115;-67
2022/12/08 14:24:50;;;;;;;26.82;10.55;;;;;;;;;;1733566;81;21054;-68
2022/12/08 14:27:20;;;;;;;22.20;9.45;;;;;;;;;;1734580;81;21083;-68
2022/12/08 14:29:47;;;;;;;21.62;9.33;;;;;;;;;;1734485;81;20968;-68
2022/12/08 14:32:18;;;;;;;21.80;9.73;;;;;;;;;;1689296;83;21030;-68
2022/12/08 14:34:44;;;;;;;20.77;10.38;;;;;;;;;;1731626;81;21034;-67
2022/12/08 14:37:11;;;;;;;22.65;10.30;;;;;;;;;;1732711;81;21103;-67
2022/12/08 14:39:37;;;;;;;18.27;10.03;;;;;;;;;;1732385;81;21039;-67
2022/12/08 14:42:04;;;;;;;22.95;10.55;;;;;;;;;;1734923;81;21093;-67
2022/12/08 14:44:31;;;;;;;22.62;10.38;;;;;;;;;;1733438;81;21089;-67
2022/12/08 14:47:04;;;;;;;19.98;9.05;;;;;;;;;;1734539;81;21559;-67
2022/12/08 14:49:32;;;;;;;22.40;10.10;;;;;;;;;;1732684;81;21044;-67
2022/12/08 14:51:59;;;;;;;23.12;11.25;;;;;;;;;;1732671;81;21525;-65
2022/12/08 14:54:25;;;;;;;19.02;10.35;;;;;;;;;;1738863;81;21028;-68
2022/12/08 14:56:52;;;;;;;22.45;9.88;;;;;;;;;;1709607;81;21166;-67
2022/12/08 14:59:29;;;;;;;20.32;9.83;;;;;;;;;;1736263;81;20995;-66
2022/12/08 15:02:14;;;;;;;22.17;9.93;;;;;;;;;;1691727;83;21040;-67
2022/12/08 15:04:42;;;;;;;16.57;8.35;;;;;;;;;;1731703;81;22220;-67
2022/12/08 15:07:17;;;;;;;23.62;10.28;;;;;;;;;;1750228;81;21524;-67
2022/12/08 15:09:47;;;;;;;22.35;9.93;;;;;;;;;;1744224;81;21563;-68
2022/12/08 15:12:15;;;;;;;20.75;9.85;;;;;;;;;;1734259;81;21020;-65
2022/12/08 15:14:42;;;;;;;24.05;11.43;;;;;;;;;;1720112;81;20953;-67
2022/12/08 15:17:27;;;;;;;26.15;11.03;;;;;;;;;;1736187;81;20949;-67
2022/12/08 15:19:56;;;;;;;20.80;9.90;;;;;;;;;;1723660;82;20945;-67
2022/12/08 15:22:23;;;;;;;23.90;12.20;;;;;;;;;;1730444;81;21516;-68
2022/12/08 15:24:49;;;;;;;23.40;10.08;;;;;;;;;;1685851;83;21817;-66
2022/12/08 15:27:18;;;;;;;28.32;11.10;;;;;;;;;;1680357;85;21001;-67
2022/12/08 15:29:45;;;;;;;21.17;10.45;;;;;;;;;;1678466;85;21049;-68
2022/12/08 15:32:11;;;;;;;24.25;11.15;;;;;;;;;;1736107;81;20986;-68
2022/12/08 15:34:37;;;;;;;22.35;10.35;;;;;;;;;;1735697;81;21092;-68
2022/12/08 15:37:03;;;;;;;24.67;10.90;;;;;;;;;;1722267;81;21032;-68
2022/12/08 15:39:33;;;;;;;19.52;9.55;;;;;;;;;;1717746;81;21013;-67
2022/12/08 15:42:00;;;;;;;17.40;9.43;;;;;;;;;;1722919;81;21079;-67
2022/12/08 15:44:26;;;;;;;19.15;10.15;;;;;;;;;;1718655;81;21701;-66
2022/12/08 15:46:52;;;;;;;25.52;11.40;;;;;;;;;;1720336;81;21036;-68
2022/12/08 15:49:19;;;;;;;18.92;8.18;;;;;;;;;;1722453;81;21052;-67
2022/12/08 15:51:45;;;;;;;21.93;10.13;;;;;;;;;;1721592;81;21064;-67
2022/12/08 15:54:11;;;;;;;20.40;9.48;;;;;;;;;;1723162;81;21591;-68
2022/12/08 15:56:39;;;;;;;16.35;9.25;;;;;;;;;;1722022;81;21143;-68
2022/12/08 15:59:05;;;;;;;18.15;8.30;;;;;;;;;;1720548;81;21017;-67
2022/12/08 16:01:32;;;;;;;16.07;8.70;;;;;;;;;;1721682;81;21148;-67
2022/12/08 16:03:58;;;;;;;15.23;7.85;;;;;;;;;;1696093;83;21118;-68
2022/12/08 16:06:24;;;;;;;15.85;8.20;;;;;;;;;;1676274;85;21078;-68
2022/12/08 16:08:51;;;;;;;18.27;10.03;;;;;;;;;;1678152;84;21093;-68
2022/12/08 16:14:01;;;;;;;17.57;8.88;;;;;;;;;;1704488;82;21017;-68
2022/12/08 16:16:28;;;;;;;18.98;8.98;;;;;;;;;;1737845;80;21112;-68
2022/12/08 16:18:54;;;;;;;15.55;8.10;;;;;;;;;;1739564;80;21054;-68
2022/12/08 16:21:20;;;;;;;15.38;8.33;;;;;;;;;;1738490;81;21703;-69
2022/12/08 16:23:46;;;;;;;18.50;8.78;;;;;;;;;;1736077;81;21124;-69
2022/12/08 16:26:14;;;;;;;16.77;8.25;;;;;;;;;;1740133;81;21011;-70
2022/12/08 16:28:41;;;;;;;18.57;9.58;;;;;;;;;;1736563;81;21097;-69
2022/12/08 16:31:08;;;;;;;14.35;7.78;;;;;;;;;;1753231;80;21064;-69
2022/12/08 16:33:34;;;;;;;15.08;7.85;;;;;;;;;;1736432;81;21426;-67
2022/12/08 16:36:02;;;;;;;16.52;8.30;;;;;;;;;;1738423;81;21060;-66
2022/12/08 16:38:30;;;;;;;20.35;9.63;;;;;;;;;;1746541;81;21523;-68
2022/12/08 16:43:41;;;;;;;29.67;24.15;;;;;;;;;;1751244;81;21040;-68
2022/12/08 16:46:07;;;;;;;16.27;8.90;;;;;;;;;;1750853;81;21061;-68
2022/12/08 16:48:34;;;;;;;23.50;11.10;;;;;;;;;;1733413;81;21025;-66
2022/12/08 16:51:03;;;;;;;18.02;8.83;;;;;;;;;;1709259;82;22161;-66
2022/12/08 16:53:29;;;;;;;17.75;9.13;;;;;;;;;;1745806;81;21029;-69
2022/12/08 16:55:55;;;;;;;16.62;8.53;;;;;;;;;;1748808;80;21021;-65
2022/12/08 16:58:21;;;;;;;16.42;8.90;;;;;;;;;;1743404;81;21051;-65
2022/12/08 17:00:48;;;;;;;16.55;8.35;;;;;;;;;;1741691;81;21029;-65
2022/12/08 17:03:14;;;;;;;15.05;8.40;;;;;;;;;;1740572;81;21029;-67
2022/12/08 17:05:41;;;;;;;15.28;8.48;;;;;;;;;;1752219;81;21004;-67
2022/12/08 17:08:08;;;;;;;17.98;8.83;;;;;;;;;;1712608;83;21500;-65
2022/12/08 17:10:37;;;;;;;25.75;12.98;;;;;;;;;;1749618;80;21002;-66
2022/12/08 17:13:03;;;;;;;22.13;11.08;;;;;;;;;;1736499;81;21645;-67
2022/12/08 17:15:29;;;;;;;15.35;8.33;;;;;;;;;;1750301;81;21036;-66
2022/12/08 17:17:56;;;;;;;18.73;10.15;;;;;;;;;;1742700;80;21592;-66
2022/12/08 17:20:24;;;;;;;21.40;11.03;;;;;;;;;;1742040;80;21662;-66
2022/12/08 17:22:54;;;;;;;20.60;10.63;;;;;;;;;;1745722;81;22170;-66
2022/12/08 17:25:20;;;;;;;18.52;9.83;;;;;;;;;;1754276;81;20990;-66
2022/12/08 17:30:28;;;;;;;12.13;6.75;;;;;;;;;;1757067;78;22489;-66
2022/12/08 17:32:56;;;;;;;16.10;7.55;;;;;;;;;;1729802;81;21022;-68
2022/12/08 17:35:22;;;;;;;14.28;8.15;;;;;;;;;;1728830;82;21071;-66
2022/12/08 17:37:48;;;;;;;14.07;8.00;;;;;;;;;;1726776;81;21084;-66
2022/12/08 17:40:15;;;;;;;13.00;7.28;;;;;;;;;;1730632;81;21535;-66
2022/12/08 17:42:41;;;;;;;12.13;6.50;;;;;;;;;;1728027;81;21111;-66
2022/12/08 17:45:09;;;;;;;16.32;8.90;;;;;;;;;;1723953;82;21060;-67
2022/12/08 17:47:36;;;;;;;11.28;6.30;;;;;;;;;;1721303;82;20993;-67
2022/12/08 17:50:02;;;;;;;11.90;6.58;;;;;;;;;;1721134;83;21786;-66
2022/12/08 17:52:29;;;;;;;12.10;6.40;;;;;;;;;;1721040;81;21574;-66
2022/12/08 17:54:55;;;;;;;12.07;6.45;;;;;;;;;;1720450;83;21438;-67
2022/12/08 17:57:21;;;;;;;14.07;8.43;;;;;;;;;;1721105;83;21033;-67
2022/12/08 17:59:48;;;;;;;11.97;7.12;;;;;;;;;;1727436;82;21088;-68
2022/12/08 18:02:14;;;;;;;11.93;6.70;;;;;;;;;;1726557;81;21067;-69
2022/12/08 18:04:40;;;;;;;13.83;7.03;;;;;;;;;;1725226;82;21041;-67
2022/12/08 18:07:06;;;;;;;12.30;7.37;;;;;;;;;;1729446;81;21093;-67
2022/12/08 18:09:33;;;;;;;14.58;8.33;;;;;;;;;;1726522;82;21168;-67
2022/12/08 18:11:59;;;;;;;13.80;7.75;;;;;;;;;;1725592;82;21052;-67
2022/12/08 18:14:25;;;;;;;14.60;7.97;;;;;;;;;;1714492;82;21040;-67
2022/12/08 18:16:51;;;;;;;16.05;8.33;;;;;;;;;;1721751;82;21071;-68
2022/12/08 18:19:18;;;;;;;15.72;7.72;;;;;;;;;;1691953;83;20997;-66
2022/12/08 18:21:44;;;;;;;17.10;8.30;;;;;;;;;;1691384;84;21057;-67
2022/12/08 18:24:12;;;;;;;13.40;7.28;;;;;;;;;;1691284;85;22187;-67
2022/12/08 18:26:39;;;;;;;13.28;7.58;;;;;;;;;;1679889;84;21012;-67
2022/12/08 18:29:05;;;;;;;15.93;7.97;;;;;;;;;;1687463;83;21073;-67
2022/12/08 18:31:32;;;;;;;13.00;6.92;;;;;;;;;;1677195;83;21170;-67
2022/12/08 18:33:58;;;;;;;13.18;7.15;;;;;;;;;;1652482;85;21058;-67
2022/12/08 18:36:24;;;;;;;12.47;7.08;;;;;;;;;;1684005;84;21086;-67
2022/12/08 18:38:51;;;;;;;13.48;7.17;;;;;;;;;;1679633;84;21113;-67
2022/12/08 18:41:18;;;;;;;28.45;14.68;;;;;;;;;;1675444;84;21087;-67
2022/12/08 18:43:45;;;;;;;24.20;12.47;;;;;;;;;;1679588;84;21065;-67
2022/12/08 18:46:12;;;;;;;15.88;6.97;;;;;;;;;;1674094;84;21018;-66
2022/12/08 18:48:40;;;;;;;12.90;7.55;;;;;;;;;;1676048;83;21119;-66
2022/12/08 18:51:11;;;;;;;15.38;7.70;;;;;;;;;;1678891;83;21077;-67
2022/12/08 18:53:37;;;;;;;13.13;7.15;;;;;;;;;;1673510;83;21069;-66
2022/12/08 19:09:42;;;;;;;15.93;8.55;;;;;;;;;;1807737;77;22119;-64
2022/12/08 19:12:11;;;;;;;20.37;9.35;;;;;;;;;;1812501;78;20972;-64
2022/12/08 19:14:38;;;;;;;19.32;9.90;;;;;;;;;;1807899;78;21021;-64
2022/12/08 19:17:05;;;;;;;19.42;9.93;;;;;;;;;;1809712;78;21089;-65
2022/12/08 19:19:31;;;;;;;18.67;10.05;;;;;;;;;;1806919;78;21032;-65
2022/12/08 19:21:57;;;;;;;19.02;9.70;;;;;;;;;;1772688;78;21445;-65
2022/12/08 19:24:23;;;;;;;19.20;9.38;;;;;;;;;;1772927;80;21067;-65
2022/12/08 19:26:50;;;;;;;21.77;10.43;;;;;;;;;;1768979;80;21040;-64